sensor_id;sensor_type;location;lat;lon;timestamp;P1;durP1;ratioP1;P2;durP2;ratioP2
69841;SDS011;57138;51.326;-0.068;2022-07-06T00:01:21;2.72;;;0.75;;
69841;SDS011;57138;51.326;-0.068;2022-07-06T00:03:47;4.95;;;0.85;;
69841;SDS011;57138;51.326;-0.068;2022-07-06T00:06:13;2.60;;;0.90;;
69841;SDS011;57138;51.326;-0.068;2022-07-06T00:08:38;3.90;;;0.90;;
69841;SDS011;57138;51.326;-0.068;2022-07-06T00:11:05;6.90;;;1.00;;
69841;SDS011;57138;51.326;-0.068;2022-07-06T00:13:32;3.58;;;0.75;;
69841;SDS011;57138;51.326;-0.068;2022-07-06T00:15:57;3.70;;;0.90;;
69841;SDS011;57138;51.326;-0.068;2022-07-06T00:18:22;2.75;;;0.70;;
69841;SDS011;57138;51.326;-0.068;2022-07-06T00:20:48;3.20;;;1.17;;
69841;SDS011;57138;51.326;-0.068;2022-07-06T00:23:13;1.85;;;0.70;;
69841;SDS011;57138;51.326;-0.068;2022-07-06T00:25:39;4.82;;;0.90;;
69841;SDS011;57138;51.326;-0.068;2022-07-06T00:28:04;4.57;;;0.80;;
69841;SDS011;57138;51.326;-0.068;2022-07-06T00:30:30;5.72;;;1.02;;
69841;SDS011;57138;51.326;-0.068;2022-07-06T00:32:56;4.43;;;1.70;;
69841;SDS011;57138;51.326;-0.068;2022-07-06T00:35:23;3.00;;;0.90;;
69841;SDS011;57138;51.326;-0.068;2022-07-06T00:37:49;12.00;;;1.65;;
69841;SDS011;57138;51.326;-0.068;2022-07-06T00:40:15;2.58;;;0.82;;
69841;SDS011;57138;51.326;-0.068;2022-07-06T00:45:07;6.50;;;1.10;;
69841;SDS011;57138;51.326;-0.068;2022-07-06T00:47:32;4.13;;;0.90;;
69841;SDS011;57138;51.326;-0.068;2022-07-06T00:49:58;2.95;;;0.90;;
69841;SDS011;57138;51.326;-0.068;2022-07-06T00:52:39;2.40;;;0.70;;
69841;SDS011;57138;51.326;-0.068;2022-07-06T00:55:08;2.05;;;0.95;;
69841;SDS011;57138;51.326;-0.068;2022-07-06T00:57:35;3.80;;;0.93;;
69841;SDS011;57138;51.326;-0.068;2022-07-06T01:00:04;3.85;;;1.17;;
69841;SDS011;57138;51.326;-0.068;2022-07-06T01:02:31;4.13;;;1.00;;
69841;SDS011;57138;51.326;-0.068;2022-07-06T01:04:57;4.82;;;0.95;;
69841;SDS011;57138;51.326;-0.068;2022-07-06T01:07:23;4.38;;;1.50;;
69841;SDS011;57138;51.326;-0.068;2022-07-06T01:09:49;3.47;;;0.80;;
69841;SDS011;57138;51.326;-0.068;2022-07-06T01:12:15;4.40;;;1.00;;
69841;SDS011;57138;51.326;-0.068;2022-07-06T01:14:40;7.35;;;1.60;;
69841;SDS011;57138;51.326;-0.068;2022-07-06T01:17:07;6.13;;;2.15;;
69841;SDS011;57138;51.326;-0.068;2022-07-06T01:19:33;3.70;;;1.00;;
69841;SDS011;57138;51.326;-0.068;2022-07-06T01:21:58;3.45;;;0.98;;
69841;SDS011;57138;51.326;-0.068;2022-07-06T01:24:24;8.43;;;1.80;;
69841;SDS011;57138;51.326;-0.068;2022-07-06T01:26:50;4.82;;;0.90;;
69841;SDS011;57138;51.326;-0.068;2022-07-06T01:29:16;4.88;;;0.95;;
69841;SDS011;57138;51.326;-0.068;2022-07-06T01:31:47;4.97;;;1.15;;
69841;SDS011;57138;51.326;-0.068;2022-07-06T01:34:25;4.35;;;1.00;;
69841;SDS011;57138;51.326;-0.068;2022-07-06T01:36:50;4.07;;;1.40;;
69841;SDS011;57138;51.326;-0.068;2022-07-06T01:39:16;4.13;;;1.10;;
69841;SDS011;57138;51.326;-0.068;2022-07-06T01:41:41;4.32;;;0.98;;
69841;SDS011;57138;51.326;-0.068;2022-07-06T01:44:07;3.20;;;1.05;;
69841;SDS011;57138;51.326;-0.068;2022-07-06T01:46:33;5.53;;;1.40;;
69841;SDS011;57138;51.326;-0.068;2022-07-06T01:48:59;2.75;;;1.08;;
69841;SDS011;57138;51.326;-0.068;2022-07-06T01:51:24;4.07;;;1.20;;
69841;SDS011;57138;51.326;-0.068;2022-07-06T01:53:50;5.68;;;1.27;;
69841;SDS011;57138;51.326;-0.068;2022-07-06T01:56:16;3.47;;;0.98;;
69841;SDS011;57138;51.326;-0.068;2022-07-06T01:58:44;5.60;;;1.10;;
69841;SDS011;57138;51.326;-0.068;2022-07-06T02:01:10;4.07;;;1.05;;
69841;SDS011;57138;51.326;-0.068;2022-07-06T02:03:37;6.32;;;1.10;;
69841;SDS011;57138;51.326;-0.068;2022-07-06T02:06:03;4.43;;;1.23;;
69841;SDS011;57138;51.326;-0.068;2022-07-06T02:08:31;4.35;;;1.17;;
69841;SDS011;57138;51.326;-0.068;2022-07-06T02:10:56;4.88;;;1.02;;
69841;SDS011;57138;51.326;-0.068;2022-07-06T02:13:22;5.32;;;1.10;;
69841;SDS011;57138;51.326;-0.068;2022-07-06T02:15:47;2.50;;;0.82;;
69841;SDS011;57138;51.326;-0.068;2022-07-06T02:18:13;4.47;;;1.30;;
69841;SDS011;57138;51.326;-0.068;2022-07-06T02:20:38;6.95;;;1.13;;
69841;SDS011;57138;51.326;-0.068;2022-07-06T02:23:04;4.60;;;1.02;;
69841;SDS011;57138;51.326;-0.068;2022-07-06T02:25:29;6.70;;;0.98;;
69841;SDS011;57138;51.326;-0.068;2022-07-06T02:27:55;9.85;;;1.75;;
69841;SDS011;57138;51.326;-0.068;2022-07-06T02:30:20;7.00;;;2.03;;
69841;SDS011;57138;51.326;-0.068;2022-07-06T02:32:46;4.30;;;1.42;;
69841;SDS011;57138;51.326;-0.068;2022-07-06T02:35:12;6.93;;;1.60;;
69841;SDS011;57138;51.326;-0.068;2022-07-06T02:37:37;6.45;;;1.40;;
69841;SDS011;57138;51.326;-0.068;2022-07-06T02:40:03;7.28;;;1.38;;
69841;SDS011;57138;51.326;-0.068;2022-07-06T02:42:29;6.30;;;1.05;;
69841;SDS011;57138;51.326;-0.068;2022-07-06T02:44:54;8.73;;;1.60;;
69841;SDS011;57138;51.326;-0.068;2022-07-06T02:47:21;6.60;;;1.42;;
69841;SDS011;57138;51.326;-0.068;2022-07-06T02:49:46;5.47;;;0.98;;
69841;SDS011;57138;51.326;-0.068;2022-07-06T02:52:12;6.22;;;1.63;;
69841;SDS011;57138;51.326;-0.068;2022-07-06T02:54:37;9.60;;;1.60;;
69841;SDS011;57138;51.326;-0.068;2022-07-06T02:57:03;7.18;;;1.30;;
69841;SDS011;57138;51.326;-0.068;2022-07-06T02:59:28;7.35;;;1.83;;
69841;SDS011;57138;51.326;-0.068;2022-07-06T03:01:54;6.68;;;1.35;;
69841;SDS011;57138;51.326;-0.068;2022-07-06T03:04:19;4.93;;;1.30;;
69841;SDS011;57138;51.326;-0.068;2022-07-06T03:06:44;5.18;;;1.25;;
69841;SDS011;57138;51.326;-0.068;2022-07-06T03:09:10;7.70;;;1.13;;
69841;SDS011;57138;51.326;-0.068;2022-07-06T03:11:35;5.35;;;1.70;;
69841;SDS011;57138;51.326;-0.068;2022-07-06T03:14:03;7.68;;;1.40;;
69841;SDS011;57138;51.326;-0.068;2022-07-06T03:16:29;5.90;;;1.17;;
69841;SDS011;57138;51.326;-0.068;2022-07-06T03:18:55;9.80;;;2.00;;
69841;SDS011;57138;51.326;-0.068;2022-07-06T03:21:20;5.95;;;1.73;;
69841;SDS011;57138;51.326;-0.068;2022-07-06T03:23:45;9.77;;;1.90;;
69841;SDS011;57138;51.326;-0.068;2022-07-06T03:26:11;3.83;;;1.20;;
69841;SDS011;57138;51.326;-0.068;2022-07-06T03:28:36;12.80;;;3.10;;
69841;SDS011;57138;51.326;-0.068;2022-07-06T03:31:01;8.23;;;1.73;;
69841;SDS011;57138;51.326;-0.068;2022-07-06T03:33:27;9.65;;;1.58;;
69841;SDS011;57138;51.326;-0.068;2022-07-06T03:35:52;5.25;;;1.70;;
69841;SDS011;57138;51.326;-0.068;2022-07-06T03:38:18;8.20;;;1.70;;
69841;SDS011;57138;51.326;-0.068;2022-07-06T03:40:43;24.02;;;2.20;;
69841;SDS011;57138;51.326;-0.068;2022-07-06T03:43:09;14.13;;;1.63;;
69841;SDS011;57138;51.326;-0.068;2022-07-06T03:45:34;9.05;;;1.73;;
69841;SDS011;57138;51.326;-0.068;2022-07-06T03:47:59;9.10;;;1.65;;
69841;SDS011;57138;51.326;-0.068;2022-07-06T03:50:25;5.60;;;1.55;;
69841;SDS011;57138;51.326;-0.068;2022-07-06T03:52:50;7.45;;;2.20;;
69841;SDS011;57138;51.326;-0.068;2022-07-06T03:55:15;8.02;;;1.70;;
69841;SDS011;57138;51.326;-0.068;2022-07-06T03:57:41;6.60;;;1.58;;
69841;SDS011;57138;51.326;-0.068;2022-07-06T04:00:07;4.13;;;1.45;;
69841;SDS011;57138;51.326;-0.068;2022-07-06T04:02:33;9.40;;;1.85;;
69841;SDS011;57138;51.326;-0.068;2022-07-06T04:04:59;7.18;;;2.65;;
69841;SDS011;57138;51.326;-0.068;2022-07-06T04:07:25;6.95;;;1.52;;
69841;SDS011;57138;51.326;-0.068;2022-07-06T04:09:51;7.05;;;1.77;;
69841;SDS011;57138;51.326;-0.068;2022-07-06T04:12:17;5.47;;;1.40;;
69841;SDS011;57138;51.326;-0.068;2022-07-06T04:14:42;7.63;;;1.60;;
69841;SDS011;57138;51.326;-0.068;2022-07-06T04:17:08;7.95;;;1.98;;
69841;SDS011;57138;51.326;-0.068;2022-07-06T04:19:52;7.28;;;1.85;;
69841;SDS011;57138;51.326;-0.068;2022-07-06T04:22:17;6.30;;;1.42;;
69841;SDS011;57138;51.326;-0.068;2022-07-06T04:24:43;7.65;;;2.47;;
69841;SDS011;57138;51.326;-0.068;2022-07-06T04:27:09;11.77;;;2.00;;
69841;SDS011;57138;51.326;-0.068;2022-07-06T04:29:34;6.03;;;1.45;;
69841;SDS011;57138;51.326;-0.068;2022-07-06T04:32:00;10.27;;;1.83;;
69841;SDS011;57138;51.326;-0.068;2022-07-06T04:34:25;8.32;;;2.17;;
69841;SDS011;57138;51.326;-0.068;2022-07-06T04:36:51;7.57;;;1.67;;
69841;SDS011;57138;51.326;-0.068;2022-07-06T04:39:16;8.75;;;1.80;;
69841;SDS011;57138;51.326;-0.068;2022-07-06T04:41:42;11.98;;;2.42;;
69841;SDS011;57138;51.326;-0.068;2022-07-06T04:44:07;7.38;;;1.83;;
69841;SDS011;57138;51.326;-0.068;2022-07-06T04:46:32;7.43;;;1.48;;
69841;SDS011;57138;51.326;-0.068;2022-07-06T04:48:58;6.45;;;1.40;;
69841;SDS011;57138;51.326;-0.068;2022-07-06T04:51:23;8.73;;;1.80;;
69841;SDS011;57138;51.326;-0.068;2022-07-06T04:53:48;5.70;;;1.80;;
69841;SDS011;57138;51.326;-0.068;2022-07-06T04:56:14;7.28;;;1.98;;
69841;SDS011;57138;51.326;-0.068;2022-07-06T04:58:39;6.28;;;1.50;;
69841;SDS011;57138;51.326;-0.068;2022-07-06T05:01:05;5.93;;;1.23;;
69841;SDS011;57138;51.326;-0.068;2022-07-06T05:03:30;8.00;;;1.60;;
69841;SDS011;57138;51.326;-0.068;2022-07-06T05:05:56;7.90;;;1.60;;
69841;SDS011;57138;51.326;-0.068;2022-07-06T05:08:21;9.48;;;2.10;;
69841;SDS011;57138;51.326;-0.068;2022-07-06T05:10:47;11.02;;;1.90;;
69841;SDS011;57138;51.326;-0.068;2022-07-06T05:13:13;3.70;;;1.40;;
69841;SDS011;57138;51.326;-0.068;2022-07-06T05:15:39;6.25;;;1.30;;
69841;SDS011;57138;51.326;-0.068;2022-07-06T05:18:04;8.23;;;1.45;;
69841;SDS011;57138;51.326;-0.068;2022-07-06T05:20:30;8.18;;;2.05;;
69841;SDS011;57138;51.326;-0.068;2022-07-06T05:22:55;6.55;;;1.38;;
69841;SDS011;57138;51.326;-0.068;2022-07-06T05:25:21;11.52;;;1.60;;
69841;SDS011;57138;51.326;-0.068;2022-07-06T05:27:46;5.40;;;1.45;;
69841;SDS011;57138;51.326;-0.068;2022-07-06T05:30:12;8.38;;;1.80;;
69841;SDS011;57138;51.326;-0.068;2022-07-06T05:32:38;5.50;;;1.58;;
69841;SDS011;57138;51.326;-0.068;2022-07-06T05:35:03;8.50;;;2.30;;
69841;SDS011;57138;51.326;-0.068;2022-07-06T05:37:29;8.63;;;1.67;;
69841;SDS011;57138;51.326;-0.068;2022-07-06T05:39:54;4.85;;;1.10;;
69841;SDS011;57138;51.326;-0.068;2022-07-06T05:42:20;12.38;;;2.08;;
69841;SDS011;57138;51.326;-0.068;2022-07-06T05:44:46;8.57;;;1.63;;
69841;SDS011;57138;51.326;-0.068;2022-07-06T05:47:12;6.60;;;2.15;;
69841;SDS011;57138;51.326;-0.068;2022-07-06T05:49:56;6.30;;;1.30;;
69841;SDS011;57138;51.326;-0.068;2022-07-06T05:52:40;6.63;;;1.48;;
69841;SDS011;57138;51.326;-0.068;2022-07-06T05:55:07;7.97;;;1.67;;
69841;SDS011;57138;51.326;-0.068;2022-07-06T05:57:34;6.13;;;1.48;;
69841;SDS011;57138;51.326;-0.068;2022-07-06T05:59:59;7.05;;;1.58;;
69841;SDS011;57138;51.326;-0.068;2022-07-06T06:02:24;9.15;;;2.17;;
69841;SDS011;57138;51.326;-0.068;2022-07-06T06:04:50;7.20;;;1.48;;
69841;SDS011;57138;51.326;-0.068;2022-07-06T06:07:16;8.52;;;1.40;;
69841;SDS011;57138;51.326;-0.068;2022-07-06T06:09:41;7.82;;;1.63;;
69841;SDS011;57138;51.326;-0.068;2022-07-06T06:12:07;7.95;;;1.60;;
69841;SDS011;57138;51.326;-0.068;2022-07-06T06:14:33;5.50;;;1.10;;
69841;SDS011;57138;51.326;-0.068;2022-07-06T06:16:58;6.63;;;1.55;;
69841;SDS011;57138;51.326;-0.068;2022-07-06T06:19:24;8.98;;;2.25;;
69841;SDS011;57138;51.326;-0.068;2022-07-06T06:21:49;6.30;;;1.50;;
69841;SDS011;57138;51.326;-0.068;2022-07-06T06:24:16;9.35;;;1.67;;
69841;SDS011;57138;51.326;-0.068;2022-07-06T06:26:42;8.15;;;1.60;;
69841;SDS011;57138;51.326;-0.068;2022-07-06T06:29:08;6.13;;;1.52;;
69841;SDS011;57138;51.326;-0.068;2022-07-06T06:31:34;6.43;;;1.92;;
69841;SDS011;57138;51.326;-0.068;2022-07-06T06:33:59;4.75;;;1.50;;
69841;SDS011;57138;51.326;-0.068;2022-07-06T06:36:25;6.95;;;1.23;;
69841;SDS011;57138;51.326;-0.068;2022-07-06T06:38:53;5.60;;;1.40;;
69841;SDS011;57138;51.326;-0.068;2022-07-06T06:41:18;6.05;;;1.73;;
69841;SDS011;57138;51.326;-0.068;2022-07-06T06:43:45;5.72;;;1.25;;
69841;SDS011;57138;51.326;-0.068;2022-07-06T06:46:11;8.70;;;2.33;;
69841;SDS011;57138;51.326;-0.068;2022-07-06T06:48:36;6.82;;;1.73;;
69841;SDS011;57138;51.326;-0.068;2022-07-06T06:51:03;13.90;;;2.72;;
69841;SDS011;57138;51.326;-0.068;2022-07-06T06:53:29;7.15;;;2.03;;
69841;SDS011;57138;51.326;-0.068;2022-07-06T06:55:55;10.15;;;2.08;;
69841;SDS011;57138;51.326;-0.068;2022-07-06T06:58:20;8.00;;;2.40;;
69841;SDS011;57138;51.326;-0.068;2022-07-06T07:00:46;8.02;;;2.05;;
69841;SDS011;57138;51.326;-0.068;2022-07-06T07:03:12;5.22;;;1.65;;
69841;SDS011;57138;51.326;-0.068;2022-07-06T07:05:38;7.50;;;1.38;;
69841;SDS011;57138;51.326;-0.068;2022-07-06T07:08:04;8.15;;;1.55;;
69841;SDS011;57138;51.326;-0.068;2022-07-06T07:10:30;8.05;;;1.75;;
69841;SDS011;57138;51.326;-0.068;2022-07-06T07:12:57;9.90;;;1.60;;
69841;SDS011;57138;51.326;-0.068;2022-07-06T07:15:22;5.13;;;1.15;;
69841;SDS011;57138;51.326;-0.068;2022-07-06T07:17:48;5.78;;;1.40;;
69841;SDS011;57138;51.326;-0.068;2022-07-06T07:20:14;5.00;;;1.13;;
69841;SDS011;57138;51.326;-0.068;2022-07-06T07:22:40;6.35;;;1.40;;
69841;SDS011;57138;51.326;-0.068;2022-07-06T07:25:06;7.22;;;1.33;;
69841;SDS011;57138;51.326;-0.068;2022-07-06T07:27:32;6.07;;;1.30;;
69841;SDS011;57138;51.326;-0.068;2022-07-06T07:29:57;8.27;;;1.80;;
69841;SDS011;57138;51.326;-0.068;2022-07-06T07:32:22;5.38;;;1.35;;
69841;SDS011;57138;51.326;-0.068;2022-07-06T07:34:48;6.72;;;1.98;;
69841;SDS011;57138;51.326;-0.068;2022-07-06T07:37:13;6.60;;;1.30;;
69841;SDS011;57138;51.326;-0.068;2022-07-06T07:39:39;4.90;;;1.30;;
69841;SDS011;57138;51.326;-0.068;2022-07-06T07:42:06;6.13;;;1.80;;
69841;SDS011;57138;51.326;-0.068;2022-07-06T07:44:31;5.57;;;1.70;;
69841;SDS011;57138;51.326;-0.068;2022-07-06T07:46:57;4.80;;;1.55;;
69841;SDS011;57138;51.326;-0.068;2022-07-06T07:49:22;6.35;;;1.90;;
69841;SDS011;57138;51.326;-0.068;2022-07-06T07:51:48;4.63;;;1.65;;
69841;SDS011;57138;51.326;-0.068;2022-07-06T07:54:15;7.00;;;1.92;;
69841;SDS011;57138;51.326;-0.068;2022-07-06T07:56:41;5.97;;;1.92;;
69841;SDS011;57138;51.326;-0.068;2022-07-06T07:59:08;4.28;;;1.40;;
69841;SDS011;57138;51.326;-0.068;2022-07-06T08:01:34;5.68;;;1.67;;
69841;SDS011;57138;51.326;-0.068;2022-07-06T08:04:00;6.22;;;2.15;;
69841;SDS011;57138;51.326;-0.068;2022-07-06T08:06:25;5.30;;;1.60;;
69841;SDS011;57138;51.326;-0.068;2022-07-06T08:08:51;5.07;;;1.50;;
69841;SDS011;57138;51.326;-0.068;2022-07-06T08:11:17;4.38;;;1.48;;
69841;SDS011;57138;51.326;-0.068;2022-07-06T08:13:43;6.68;;;2.03;;
69841;SDS011;57138;51.326;-0.068;2022-07-06T08:16:09;5.90;;;1.42;;
69841;SDS011;57138;51.326;-0.068;2022-07-06T08:18:35;8.35;;;1.90;;
69841;SDS011;57138;51.326;-0.068;2022-07-06T08:21:01;9.32;;;1.80;;
69841;SDS011;57138;51.326;-0.068;2022-07-06T08:23:27;7.78;;;2.60;;
69841;SDS011;57138;51.326;-0.068;2022-07-06T08:25:52;8.60;;;1.92;;
69841;SDS011;57138;51.326;-0.068;2022-07-06T08:28:17;7.80;;;1.70;;
69841;SDS011;57138;51.326;-0.068;2022-07-06T08:30:44;6.20;;;1.67;;
69841;SDS011;57138;51.326;-0.068;2022-07-06T08:33:10;5.50;;;1.70;;
69841;SDS011;57138;51.326;-0.068;2022-07-06T08:35:35;5.82;;;1.90;;
69841;SDS011;57138;51.326;-0.068;2022-07-06T08:38:01;5.15;;;1.63;;
69841;SDS011;57138;51.326;-0.068;2022-07-06T08:40:30;4.15;;;1.45;;
69841;SDS011;57138;51.326;-0.068;2022-07-06T08:42:59;3.35;;;1.50;;
69841;SDS011;57138;51.326;-0.068;2022-07-06T08:45:25;6.53;;;2.33;;
69841;SDS011;57138;51.326;-0.068;2022-07-06T08:47:51;3.42;;;1.50;;
69841;SDS011;57138;51.326;-0.068;2022-07-06T08:50:23;7.65;;;1.60;;
69841;SDS011;57138;51.326;-0.068;2022-07-06T08:52:50;4.75;;;1.90;;
69841;SDS011;57138;51.326;-0.068;2022-07-06T08:55:17;6.50;;;2.38;;
69841;SDS011;57138;51.326;-0.068;2022-07-06T08:57:45;7.32;;;2.00;;
69841;SDS011;57138;51.326;-0.068;2022-07-06T09:00:11;6.63;;;2.03;;
69841;SDS011;57138;51.326;-0.068;2022-07-06T09:02:37;5.85;;;1.80;;
69841;SDS011;57138;51.326;-0.068;2022-07-06T09:05:03;6.78;;;1.83;;
69841;SDS011;57138;51.326;-0.068;2022-07-06T09:07:30;5.68;;;2.10;;
69841;SDS011;57138;51.326;-0.068;2022-07-06T09:09:55;6.70;;;1.63;;
69841;SDS011;57138;51.326;-0.068;2022-07-06T09:12:26;4.38;;;1.77;;
69841;SDS011;57138;51.326;-0.068;2022-07-06T09:14:56;4.07;;;1.33;;
69841;SDS011;57138;51.326;-0.068;2022-07-06T09:17:25;4.32;;;1.95;;
69841;SDS011;57138;51.326;-0.068;2022-07-06T09:19:54;3.97;;;1.08;;
69841;SDS011;57138;51.326;-0.068;2022-07-06T09:22:30;3.75;;;1.15;;
69841;SDS011;57138;51.326;-0.068;2022-07-06T09:25:07;10.68;;;3.05;;
69841;SDS011;57138;51.326;-0.068;2022-07-06T09:27:37;4.15;;;1.05;;
69841;SDS011;57138;51.326;-0.068;2022-07-06T09:30:05;4.53;;;1.38;;
69841;SDS011;57138;51.326;-0.068;2022-07-06T09:32:37;5.78;;;1.33;;
69841;SDS011;57138;51.326;-0.068;2022-07-06T09:35:07;4.10;;;1.27;;
69841;SDS011;57138;51.326;-0.068;2022-07-06T09:37:34;2.55;;;1.10;;
69841;SDS011;57138;51.326;-0.068;2022-07-06T09:39:59;7.15;;;1.70;;
69841;SDS011;57138;51.326;-0.068;2022-07-06T09:42:25;3.75;;;0.98;;
69841;SDS011;57138;51.326;-0.068;2022-07-06T09:44:51;1.33;;;0.70;;
69841;SDS011;57138;51.326;-0.068;2022-07-06T09:47:18;2.65;;;0.70;;
69841;SDS011;57138;51.326;-0.068;2022-07-06T09:49:45;2.08;;;0.90;;
69841;SDS011;57138;51.326;-0.068;2022-07-06T09:52:13;3.83;;;2.35;;
69841;SDS011;57138;51.326;-0.068;2022-07-06T09:54:39;4.93;;;0.93;;
69841;SDS011;57138;51.326;-0.068;2022-07-06T09:57:05;2.83;;;0.90;;
69841;SDS011;57138;51.326;-0.068;2022-07-06T09:59:32;6.72;;;0.73;;
69841;SDS011;57138;51.326;-0.068;2022-07-06T10:02:00;3.20;;;1.55;;
69841;SDS011;57138;51.326;-0.068;2022-07-06T10:04:27;5.35;;;0.70;;
69841;SDS011;57138;51.326;-0.068;2022-07-06T10:06:55;2.25;;;0.80;;
69841;SDS011;57138;51.326;-0.068;2022-07-06T10:09:22;4.90;;;0.70;;
69841;SDS011;57138;51.326;-0.068;2022-07-06T10:11:58;1.83;;;0.77;;
69841;SDS011;57138;51.326;-0.068;2022-07-06T10:14:26;3.90;;;0.63;;
69841;SDS011;57138;51.326;-0.068;2022-07-06T10:16:54;3.40;;;0.90;;
69841;SDS011;57138;51.326;-0.068;2022-07-06T10:19:24;2.22;;;0.63;;
69841;SDS011;57138;51.326;-0.068;2022-07-06T10:21:52;2.38;;;0.80;;
69841;SDS011;57138;51.326;-0.068;2022-07-06T10:24:18;2.35;;;0.75;;
69841;SDS011;57138;51.326;-0.068;2022-07-06T10:26:46;4.57;;;0.80;;
69841;SDS011;57138;51.326;-0.068;2022-07-06T10:29:12;2.80;;;0.70;;
69841;SDS011;57138;51.326;-0.068;2022-07-06T10:31:39;2.53;;;0.73;;
69841;SDS011;57138;51.326;-0.068;2022-07-06T10:34:09;2.03;;;0.65;;
69841;SDS011;57138;51.326;-0.068;2022-07-06T10:36:37;2.85;;;0.70;;
69841;SDS011;57138;51.326;-0.068;2022-07-06T10:39:04;1.33;;;0.70;;
69841;SDS011;57138;51.326;-0.068;2022-07-06T10:41:50;2.25;;;0.68;;
69841;SDS011;57138;51.326;-0.068;2022-07-06T10:44:16;2.83;;;0.60;;
69841;SDS011;57138;51.326;-0.068;2022-07-06T10:46:49;1.13;;;0.40;;
69841;SDS011;57138;51.326;-0.068;2022-07-06T10:49:16;2.42;;;0.90;;
69841;SDS011;57138;51.326;-0.068;2022-07-06T10:51:41;2.47;;;0.80;;
69841;SDS011;57138;51.326;-0.068;2022-07-06T10:54:07;2.28;;;0.75;;
69841;SDS011;57138;51.326;-0.068;2022-07-06T10:56:48;2.72;;;0.55;;
69841;SDS011;57138;51.326;-0.068;2022-07-06T10:59:22;3.70;;;0.90;;
69841;SDS011;57138;51.326;-0.068;2022-07-06T11:04:35;3.35;;;0.57;;
69841;SDS011;57138;51.326;-0.068;2022-07-06T11:07:07;1.65;;;0.80;;
69841;SDS011;57138;51.326;-0.068;2022-07-06T11:09:35;4.95;;;0.70;;
69841;SDS011;57138;51.326;-0.068;2022-07-06T11:12:12;5.20;;;0.70;;
69841;SDS011;57138;51.326;-0.068;2022-07-06T11:14:44;1.88;;;0.60;;
69841;SDS011;57138;51.326;-0.068;2022-07-06T11:17:14;1.58;;;0.50;;
69841;SDS011;57138;51.326;-0.068;2022-07-06T11:19:49;2.15;;;0.60;;
69841;SDS011;57138;51.326;-0.068;2022-07-06T11:22:16;3.42;;;0.50;;
69841;SDS011;57138;51.326;-0.068;2022-07-06T11:24:43;2.75;;;0.70;;
69841;SDS011;57138;51.326;-0.068;2022-07-06T11:27:09;1.77;;;0.55;;
69841;SDS011;57138;51.326;-0.068;2022-07-06T11:29:35;2.15;;;0.63;;
69841;SDS011;57138;51.326;-0.068;2022-07-06T11:32:05;3.40;;;0.70;;
69841;SDS011;57138;51.326;-0.068;2022-07-06T11:34:35;1.50;;;0.40;;
69841;SDS011;57138;51.326;-0.068;2022-07-06T11:37:11;4.70;;;1.60;;
69841;SDS011;57138;51.326;-0.068;2022-07-06T11:39:42;4.65;;;0.60;;
69841;SDS011;57138;51.326;-0.068;2022-07-06T11:42:10;2.08;;;0.50;;
69841;SDS011;57138;51.326;-0.068;2022-07-06T11:44:37;0.60;;;0.40;;
69841;SDS011;57138;51.326;-0.068;2022-07-06T11:47:04;5.93;;;0.60;;
69841;SDS011;57138;51.326;-0.068;2022-07-06T11:49:31;3.67;;;0.70;;
69841;SDS011;57138;51.326;-0.068;2022-07-06T11:51:59;0.93;;;0.50;;
69841;SDS011;57138;51.326;-0.068;2022-07-06T11:54:25;2.28;;;0.68;;
69841;SDS011;57138;51.326;-0.068;2022-07-06T11:56:52;2.67;;;0.50;;
69841;SDS011;57138;51.326;-0.068;2022-07-06T11:59:30;2.03;;;0.57;;
69841;SDS011;57138;51.326;-0.068;2022-07-06T12:04:40;1.23;;;0.40;;
69841;SDS011;57138;51.326;-0.068;2022-07-06T12:07:07;1.85;;;0.60;;
69841;SDS011;57138;51.326;-0.068;2022-07-06T12:09:37;1.15;;;0.50;;
69841;SDS011;57138;51.326;-0.068;2022-07-06T12:12:04;1.40;;;0.50;;
69841;SDS011;57138;51.326;-0.068;2022-07-06T12:14:31;5.07;;;0.40;;
69841;SDS011;57138;51.326;-0.068;2022-07-06T12:17:05;1.48;;;0.60;;
69841;SDS011;57138;51.326;-0.068;2022-07-06T12:19:32;1.38;;;0.57;;
69841;SDS011;57138;51.326;-0.068;2022-07-06T12:21:58;1.77;;;0.60;;
69841;SDS011;57138;51.326;-0.068;2022-07-06T12:24:26;1.70;;;0.50;;
69841;SDS011;57138;51.326;-0.068;2022-07-06T12:26:53;1.23;;;0.50;;
69841;SDS011;57138;51.326;-0.068;2022-07-06T12:29:19;3.70;;;0.50;;
69841;SDS011;57138;51.326;-0.068;2022-07-06T12:34:19;2.63;;;0.70;;
69841;SDS011;57138;51.326;-0.068;2022-07-06T12:36:50;1.23;;;0.40;;
69841;SDS011;57138;51.326;-0.068;2022-07-06T12:39:17;4.72;;;0.70;;
69841;SDS011;57138;51.326;-0.068;2022-07-06T12:41:48;1.63;;;0.50;;
69841;SDS011;57138;51.326;-0.068;2022-07-06T12:44:23;2.10;;;0.68;;
69841;SDS011;57138;51.326;-0.068;2022-07-06T12:47:02;2.92;;;0.65;;
69841;SDS011;57138;51.326;-0.068;2022-07-06T12:49:30;1.20;;;0.45;;
69841;SDS011;57138;51.326;-0.068;2022-07-06T12:51:59;1.70;;;0.43;;
69841;SDS011;57138;51.326;-0.068;2022-07-06T12:54:44;1.75;;;0.50;;
69841;SDS011;57138;51.326;-0.068;2022-07-06T12:57:41;2.03;;;0.40;;
69841;SDS011;57138;51.326;-0.068;2022-07-06T13:00:09;1.45;;;0.52;;
69841;SDS011;57138;51.326;-0.068;2022-07-06T13:02:35;1.92;;;0.40;;
69841;SDS011;57138;51.326;-0.068;2022-07-06T13:05:05;3.53;;;0.40;;
69841;SDS011;57138;51.326;-0.068;2022-07-06T13:07:36;4.90;;;0.50;;
69841;SDS011;57138;51.326;-0.068;2022-07-06T13:12:30;2.38;;;0.80;;
69841;SDS011;57138;51.326;-0.068;2022-07-06T13:14:56;1.45;;;0.40;;
69841;SDS011;57138;51.326;-0.068;2022-07-06T13:17:21;2.65;;;0.47;;
69841;SDS011;57138;51.326;-0.068;2022-07-06T13:19:47;5.40;;;0.52;;
69841;SDS011;57138;51.326;-0.068;2022-07-06T13:22:13;1.52;;;0.43;;
69841;SDS011;57138;51.326;-0.068;2022-07-06T13:24:39;1.20;;;0.43;;
69841;SDS011;57138;51.326;-0.068;2022-07-06T13:27:05;1.92;;;0.50;;
69841;SDS011;57138;51.326;-0.068;2022-07-06T13:29:31;3.72;;;0.55;;
69841;SDS011;57138;51.326;-0.068;2022-07-06T13:31:56;3.38;;;0.68;;
69841;SDS011;57138;51.326;-0.068;2022-07-06T13:34:22;2.33;;;0.60;;
69841;SDS011;57138;51.326;-0.068;2022-07-06T13:36:48;1.60;;;0.50;;
69841;SDS011;57138;51.326;-0.068;2022-07-06T13:39:14;1.13;;;0.50;;
69841;SDS011;57138;51.326;-0.068;2022-07-06T13:41:39;1.60;;;0.70;;
69841;SDS011;57138;51.326;-0.068;2022-07-06T13:44:05;2.88;;;0.50;;
69841;SDS011;57138;51.326;-0.068;2022-07-06T13:46:32;2.63;;;0.52;;
69841;SDS011;57138;51.326;-0.068;2022-07-06T13:48:57;1.40;;;0.60;;
69841;SDS011;57138;51.326;-0.068;2022-07-06T13:51:24;1.92;;;0.43;;
69841;SDS011;57138;51.326;-0.068;2022-07-06T13:53:51;1.58;;;0.50;;
69841;SDS011;57138;51.326;-0.068;2022-07-06T13:56:17;2.60;;;0.77;;
69841;SDS011;57138;51.326;-0.068;2022-07-06T13:58:43;2.22;;;0.70;;
69841;SDS011;57138;51.326;-0.068;2022-07-06T14:01:09;1.02;;;0.43;;
69841;SDS011;57138;51.326;-0.068;2022-07-06T14:03:35;2.17;;;0.55;;
69841;SDS011;57138;51.326;-0.068;2022-07-06T14:06:02;2.05;;;0.45;;
69841;SDS011;57138;51.326;-0.068;2022-07-06T14:08:29;2.45;;;0.32;;
69841;SDS011;57138;51.326;-0.068;2022-07-06T14:10:55;1.15;;;0.50;;
69841;SDS011;57138;51.326;-0.068;2022-07-06T14:13:21;1.60;;;0.50;;
69841;SDS011;57138;51.326;-0.068;2022-07-06T14:15:47;1.35;;;0.50;;
69841;SDS011;57138;51.326;-0.068;2022-07-06T14:18:13;1.40;;;0.45;;
69841;SDS011;57138;51.326;-0.068;2022-07-06T14:20:39;3.78;;;0.65;;
69841;SDS011;57138;51.326;-0.068;2022-07-06T14:23:05;1.15;;;0.50;;
69841;SDS011;57138;51.326;-0.068;2022-07-06T14:25:34;3.67;;;0.60;;
69841;SDS011;57138;51.326;-0.068;2022-07-06T14:28:00;3.03;;;0.63;;
69841;SDS011;57138;51.326;-0.068;2022-07-06T14:30:27;3.60;;;0.50;;
69841;SDS011;57138;51.326;-0.068;2022-07-06T14:32:52;1.58;;;0.50;;
69841;SDS011;57138;51.326;-0.068;2022-07-06T14:35:18;1.60;;;0.60;;
69841;SDS011;57138;51.326;-0.068;2022-07-06T14:37:44;1.92;;;0.50;;
69841;SDS011;57138;51.326;-0.068;2022-07-06T14:40:09;2.08;;;0.60;;
69841;SDS011;57138;51.326;-0.068;2022-07-06T14:42:37;3.45;;;0.60;;
69841;SDS011;57138;51.326;-0.068;2022-07-06T14:45:02;2.63;;;0.80;;